Date,TemperatureHighF,TemperatureAvgF,TemperatureLowF,DewpointHighF,DewpointAvgF,DewpointLowF,HumidityHigh,HumidityAvg,HumidityLow,PressureMaxIn,PressureMinIn,WindSpeedMaxMPH,WindSpeedAvgMPH,GustSpeedMaxMPH,PrecipitationSumIn
2012-1-1,51,43,34,48,40,33,98,91,67,30.14,29.75,13,3,15,0.01
2012-1-2,50,43,35,49,33,22,97,69,43,29.80,29.60,20,4,21,0.00
2012-1-3,35,31,26,24,22,20,80,69,62,29.81,29.78,5,-15,7,0.00
2012-1-5,39,36,32,25,23,22,68,59,54,29.91,29.81,12,2,12,0.00
2012-1-12,50,45,39,50,44,38,98,97,95,29.75,29.39,18,3,33,0.02
2012-1-13,56,43,35,51,39,22,99,86,58,29.64,29.34,41,9,41,0.00
2012-1-14,37,35,31,20,17,10,51,46,42,29.92,29.82,11,3,16,0.00
2012-1-17,51,46,42,49,44,39,98,91,80,29.93,29.59,23,7,25,0.01
2012-1-18,52,44,32,48,30,13,90,61,40,30.01,29.53,23,6,29,0.00
2012-1-23,49,47,44,48,46,44,99,98,97,30.19,29.99,13,5,17,0.00
2012-1-24,54,48,38,54,46,36,99,92,73,30.08,29.96,18,5,26,0.01
2012-1-25,46,40,32,37,29,26,85,66,52,30.27,30.08,11,2,15,0.00
2012-1-26,39,37,35,36,32,31,95,83,73,30.26,30.13,7,2,9,0.00
2012-1-27,55,48,41,54,47,34,99,96,78,29.96,29.33,22,6,28,0.11
2012-1-28,46,41,35,38,33,30,86,74,54,30.07,29.65,15,4,16,0.00
2012-1-29,43,40,37,38,25,17,82,57,38,30.17,29.96,18,5,21,0.00
2012-1-30,41,38,32,27,17,13,64,44,34,30.34,30.14,16,4,20,0.00
2012-1-31,51,45,36,41,37,33,95,75,53,30.17,30.09,14,4,17,0.00
2012-2-1,54,45,35,46,41,34,98,86,69,30.09,29.85,23,3,28,0.01
2012-2-2,44,40,33,39,34,31,94,78,69,30.09,30.01,13,3,15,0.00
2012-2-4,44,39,33,30,26,24,71,60,48,30.22,30.16,11,4,13,0.00
2012-2-5,33,32,30,21,20,20,66,60,58,30.16,30.14,7,2,8,0.00
2012-2-6,45,43,41,37,33,30,78,69,61,30.01,29.94,22,8,26,0.00
2012-2-7,41,37,33,32,30,29,84,76,69,30.19,30.10,5,2,8,0.00
2012-2-9,44,38,28,26,23,19,78,55,41,30.12,30.03,10,2,16,0.00
2012-2-10,47,46,45,37,37,36,71,69,68,30.15,30.14,18,10,19,0.00
2012-2-16,46,41,38,38,36,33,95,84,66,30.32,30.14,10,3,11,0.00
2012-2-17,46,41,35,44,38,24,97,90,60,30.10,29.89,11,2,13,0.00
2012-2-18,46,42,36,31,27,20,73,57,36,30.01,29.91,16,5,20,0.00
2012-2-19,40,35,26,28,26,23,88,70,60,30.10,30.04,13,-7,16,0.00
2012-2-20,37,36,35,22,19,17,53,50,46,30.22,30.14,17,6,22,0.00
2012-2-21,41,38,37,39,30,22,95,73,55,30.38,29.94,19,7,20,0.01
2012-2-22,51,46,34,45,39,33,97,79,53,29.93,29.65,17,4,21,0.00
2012-2-23,57,47,33,48,39,26,98,75,39,29.85,29.43,16,4,19,0.01
2012-2-24,48,38,30,48,36,26,98,93,76,29.86,29.18,15,3,17,0.07
2012-2-25,46,41,37,44,27,20,97,60,39,29.65,29.23,28,7,31,0.00
2012-2-26,42,38,29,15,8,4,53,29,22,30.47,30.30,15,3,21,0.00
2012-2-27,49,45,41,41,38,27,83,74,58,30.45,30.08,20,8,25,0.00
2012-2-28,49,41,30,40,28,22,82,60,39,30.45,30.08,18,3,19,0.00
2012-2-29,40,36,32,33,30,27,96,81,62,30.38,30.13,4,1,6,0.02
2012-3-1,42,39,35,41,38,34,97,97,96,29.86,29.71,17,5,18,0.16
2012-3-2,35,34,31,29,29,28,88,81,76,30.21,30.17,10,2,13,0.00
2012-3-3,53,48,42,53,45,35,99,91,67,29.69,29.44,25,6,25,0.11
2012-3-4,42,37,28,36,32,26,94,84,62,29.77,29.59,10,1,13,0.00
2012-3-5,42,40,37,20,13,7,50,34,24,30.10,30.01,19,4,20,0.00
2012-3-14,45,43,41,43,42,40,98,95,92,30.30,30.14,15,5,17,0.00
2012-3-15,42,39,35,40,36,32,97,87,77,30.43,30.29,15,4,15,0.00
2012-3-16,41,40,33,40,38,30,97,94,87,30.41,30.17,10,2,10,0.02
2012-3-17,50,43,32,44,40,30,98,90,71,30.43,30.22,10,2,11,0.00
2012-3-18,60,47,31,49,42,30,98,86,65,30.43,30.23,17,5,19,0.00
2012-3-19,72,56,44,56,49,43,98,82,53,30.31,30.19,12,4,12,0.00
2012-3-20,71,56,41,61,52,39,98,87,67,30.39,30.30,16,3,18,0.00
2012-3-21,72,60,52,62,56,51,99,90,67,30.41,30.30,19,4,20,0.00
2012-3-22,69,59,53,60,56,52,99,90,70,30.31,30.05,20,5,23,0.00
2012-3-23,68,58,51,57,46,36,96,68,33,30.18,30.03,13,3,16,0.00
2012-3-24,54,47,42,41,35,28,76,62,42,30.22,30.09,12,3,13,0.00
2012-3-25,46,44,42,42,39,34,97,83,68,30.12,29.73,15,4,16,0.00
2012-3-26,51,42,33,47,32,14,97,71,41,29.99,29.68,29,7,32,0.00
2012-3-27,43,36,28,22,12,6,75,40,23,30.23,30.14,25,6,25,0.00
2012-3-28,48,40,27,46,34,19,96,80,45,30.21,29.60,19,4,23,0.16
2012-3-29,45,41,36,45,39,30,97,90,73,29.96,29.55,21,5,23,0.00
2012-3-30,45,40,32,34,26,18,81,59,35,30.10,29.96,18,4,18,0.00
2012-3-31,42,38,30,38,35,28,95,89,66,30.11,29.94,9,2,11,0.05
2012-4-1,50,39,27,36,30,24,98,75,38,29.95,29.71,15,4,18,0.08
2012-4-2,45,40,33,40,36,24,97,88,49,29.83,29.62,16,3,17,0.02
2012-4-3,52,41,32,31,24,17,88,53,30,29.87,29.77,18,3,22,0.00
2012-4-4,62,49,32,37,29,21,90,50,27,29.78,29.48,20,3,20,0.00
2012-4-5,48,43,37,36,30,26,82,62,46,29.95,29.65,16,4,22,0.00
2012-4-6,47,39,30,32,27,23,90,65,40,30.02,29.94,13,2,14,0.00
2012-4-7,46,42,32,31,28,25,91,59,46,30.06,29.98,14,4,19,0.00
2012-4-8,50,44,37,40,31,25,88,63,40,30.04,29.68,10,2,13,0.00
2012-4-9,58,49,35,39,34,30,94,58,36,29.72,29.56,26,5,29,0.00
2012-4-10,58,47,32,42,35,27,96,66,33,29.81,29.68,22,1,26,0.00
2012-4-11,51,44,34,44,38,32,96,80,58,29.90,29.79,17,3,18,0.00
2012-4-12,51,44,36,43,40,34,97,87,73,30.12,29.89,15,3,16,0.00
2012-4-13,58,46,32,43,35,28,98,70,33,30.20,30.10,15,3,17,0.00
2012-4-14,67,54,40,46,35,26,85,54,22,30.20,30.07,17,4,22,0.00
2012-4-15,68,57,50,53,50,45,89,77,52,30.09,29.96,16,5,20,0.00
2012-4-16,69,61,53,58,55,51,97,81,63,30.09,30.00,13,4,14,0.00
2012-4-17,81,67,52,60,49,30,97,59,24,30.11,29.98,14,3,14,0.00
2012-4-18,63,52,48,43,39,33,79,62,32,30.27,30.11,13,4,19,0.00
2012-4-19,59,52,47,46,43,38,89,73,49,30.20,30.08,17,4,20,0.00
2012-4-20,62,54,48,51,48,45,94,80,64,30.11,29.99,19,6,20,0.00
2012-4-21,64,57,53,58,54,48,98,92,76,29.99,29.80,18,6,18,0.00
2012-4-22,60,52,47,60,52,46,100,98,96,29.85,29.65,17,4,22,0.04
2012-4-23,61,55,50,60,54,46,100,96,89,29.65,29.39,34,10,34,0.56
2012-4-24,54,50,47,47,41,34,91,71,51,29.81,29.49,25,8,28,0.00
2012-4-25,62,53,47,48,40,26,85,64,30,29.94,29.79,20,6,21,0.00
2012-4-26,57,50,35,52,42,32,94,75,45,30.01,29.60,20,5,20,0.00
2012-4-27,59,53,40,53,39,25,97,63,38,30.04,29.53,20,4,23,0.01
2012-4-28,54,46,32,41,31,23,78,57,34,30.18,30.04,19,4,20,0.00
2012-4-29,56,49,42,41,27,17,87,45,24,30.25,30.03,13,3,17,0.00
2012-4-30,54,48,41,37,28,19,67,48,35,30.38,30.26,15,4,15,0.00
2012-5-1,50,48,45,47,44,36,98,87,63,30.32,30.05,28,6,29,0.37
2012-5-2,54,49,46,50,47,45,98,93,82,30.28,30.13,11,3,14,0.00
2012-5-3,53,49,45,48,46,44,96,89,78,30.27,30.17,9,2,11,0.00
2012-5-4,54,51,49,52,50,47,98,95,91,30.18,29.99,12,4,14,0.00
2012-5-5,55,51,48,54,50,48,99,97,93,30.13,29.99,8,2,9,0.03
2012-5-6,56,50,40,51,45,38,99,85,57,30.19,30.11,15,3,15,0.00
2012-5-7,65,53,38,50,42,31,98,71,32,30.21,30.15,13,2,14,0.00
2012-5-8,56,53,48,53,47,41,93,80,60,30.19,29.98,25,7,25,0.00
2012-5-9,59,57,55,59,56,53,99,97,90,29.98,29.67,21,8,21,0.88
2012-5-10,65,58,51,58,53,42,99,85,65,29.76,29.42,23,5,28,0.83
2012-5-11,61,54,47,48,43,37,90,69,42,30.08,29.76,16,3,18,0.00
2012-5-12,72,60,43,49,40,28,90,53,21,30.21,30.08,17,3,19,0.00
2012-5-13,75,64,51,57,52,48,90,66,41,30.21,30.14,17,5,19,0.00
2012-5-14,70,62,57,61,56,53,92,82,67,30.25,30.16,17,5,21,0.00
2012-5-15,66,61,57,59,56,54,96,87,69,30.25,30.05,22,7,22,0.07
2012-5-16,68,62,59,64,60,59,99,97,85,30.03,29.90,19,6,24,0.97
2012-5-17,66,59,46,60,48,38,99,71,38,30.21,29.92,17,4,17,0.00
2012-5-18,67,55,42,53,44,36,99,70,37,30.31,30.21,11,2,12,0.00
2012-5-19,67,57,44,49,42,34,96,63,30,30.24,30.16,14,3,15,0.00
2012-5-20,71,59,46,52,43,33,95,61,29,30.35,30.21,12,2,14,0.00
2012-5-21,61,58,49,60,57,46,99,97,86,30.33,30.11,10,3,12,0.09
2012-5-22,63,60,57,63,60,56,100,99,99,30.10,29.83,8,2,14,0.34
2012-5-23,73,61,57,65,60,57,100,95,74,30.12,29.87,9,2,10,0.00
2012-5-24,68,61,55,62,59,55,100,94,81,30.32,30.14,14,4,16,0.00
2012-5-25,63,60,56,62,59,55,100,98,96,30.33,30.18,12,4,12,0.03
2012-5-26,79,68,61,71,66,61,100,92,75,30.19,30.06,16,4,17,0.00
2012-5-27,74,66,60,65,60,56,98,81,58,30.18,30.08,9,3,11,0.00
2012-5-28,68,64,57,66,61,56,99,93,81,30.06,29.98,11,3,13,0.00
2012-5-29,81,67,56,74,65,56,100,93,78,30.00,29.78,16,5,18,0.00
2012-5-30,77,70,61,68,65,59,99,85,62,29.78,29.72,6,1,10,0.00
2012-5-31,77,68,57,67,58,49,100,75,39,29.90,29.74,11,2,14,0.00
2012-6-1,67,61,55,60,54,50,97,80,56,30.11,29.92,11,4,15,0.00
2012-6-2,63,58,53,62,57,51,99,96,93,30.06,29.75,25,9,26,0.64
2012-6-3,62,58,52,61,56,50,99,94,85,29.74,29.63,22,4,22,0.65
2012-6-4,52,51,49,52,50,48,98,97,93,29.79,29.57,18,5,20,0.02
2012-6-5,53,51,48,50,49,46,97,92,86,30.00,29.78,13,3,14,0.01
2012-6-6,63,55,43,54,50,42,100,84,59,30.05,29.98,10,2,11,0.00
2012-6-7,66,58,48,60,55,47,99,90,71,30.03,29.96,9,2,11,0.08
2012-6-8,69,61,48,62,57,47,99,88,70,29.98,29.83,15,4,17,0.00
2012-6-9,76,66,57,61,55,44,94,69,35,29.98,29.82,13,3,13,0.00
2012-6-10,75,64,53,58,53,47,98,71,37,30.27,29.99,9,2,10,0.00
2012-6-11,66,59,50,58,54,49,98,83,66,30.36,30.27,13,4,15,0.00
2012-6-12,68,62,58,62,59,56,95,89,79,30.27,30.05,19,6,19,0.00
2012-6-13,62,60,57,61,59,57,99,96,93,30.12,29.99,14,3,14,0.42
2012-6-14,65,59,51,59,56,49,99,88,66,30.28,30.13,15,2,15,0.07
2012-6-15,67,60,51,60,56,50,99,85,72,30.35,30.26,13,3,15,0.00
2012-6-16,65,59,56,59,55,50,95,87,77,30.38,30.29,10,3,14,0.00
2012-6-17,65,58,51,55,52,49,93,80,66,30.30,30.17,14,3,16,0.00
2012-6-18,63,58,49,58,55,47,95,89,82,30.22,30.17,10,2,11,0.00
2012-6-19,68,60,47,62,57,46,99,90,73,30.24,30.12,16,5,19,0.00
2012-6-20,90,76,63,77,70,61,96,81,64,30.09,29.87,15,4,16,0.00
2012-6-21,92,82,72,73,71,68,92,69,48,29.86,29.75,10,2,13,0.00
2012-6-22,93,80,69,75,70,67,96,73,47,29.79,29.71,11,2,15,0.00
2012-6-23,80,72,61,70,66,59,93,83,67,29.94,29.77,17,3,21,0.00
2012-6-24,82,70,56,63,57,50,98,68,34,29.98,29.91,10,2,11,0.00
2012-6-25,71,67,64,67,64,60,97,90,79,29.91,29.68,16,5,20,0.18
2012-6-26,71,63,58,64,60,57,98,93,73,29.68,29.57,10,1,11,0.77
2012-6-27,78,66,53,62,58,52,98,77,51,29.78,29.64,14,2,16,0.00
2012-6-28,81,71,60,63,60,57,95,72,45,29.79,29.73,13,2,14,0.00
2012-6-29,81,72,63,73,68,62,98,87,74,29.76,29.59,18,3,19,0.00
2012-6-30,88,76,61,68,64,60,96,70,38,29.77,29.66,17,3,19,0.00
2012-7-1,88,75,64,72,67,63,98,79,48,29.85,29.75,15,2,16,0.02
2012-7-2,82,72,64,67,65,61,97,79,53,29.90,29.81,12,2,13,0.00
2012-7-3,81,71,63,66,62,54,95,75,43,29.94,29.87,12,3,14,0.00
2012-7-4,80,73,66,72,69,63,95,86,71,29.90,29.72,15,5,17,0.05
2012-7-5,78,72,65,70,67,63,97,83,67,29.87,29.66,14,3,17,0.00
2012-7-6,83,74,64,71,67,62,98,81,61,29.93,29.85,11,2,11,0.00
2012-7-7,82,77,71,76,72,67,92,86,75,29.87,29.72,13,2,13,0.00
2012-7-8,84,75,65,69,66,63,94,74,54,29.86,29.78,11,2,13,0.00
2012-7-9,79,71,61,64,59,50,92,67,40,30.00,29.87,8,2,10,0.00
2012-7-10,81,70,58,66,60,50,98,75,37,30.12,29.99,9,2,10,0.00
2012-7-11,80,70,61,70,65,59,99,84,52,30.23,30.12,13,3,14,0.00
2012-7-12,77,69,56,68,61,55,99,77,51,30.24,30.16,12,3,12,0.00
2012-7-13,80,72,66,69,65,57,96,79,52,30.24,30.18,12,4,13,0.00
2012-7-14,87,76,67,73,68,64,98,77,54,30.18,30.09,12,2,14,0.00
2012-7-15,84,77,70,74,71,66,95,82,63,30.12,29.92,13,4,15,0.00
2012-7-16,86,77,72,75,72,70,98,87,63,29.91,29.75,10,2,12,0.19
2012-7-17,87,80,70,75,70,64,97,74,53,29.81,29.73,19,4,19,0.00
2012-7-18,91,80,73,78,74,71,96,83,65,29.88,29.71,12,3,17,0.01
2012-7-19,78,70,67,71,63,58,97,77,52,30.04,29.89,9,2,12,0.00
2012-7-20,72,67,62,65,62,58,96,84,69,30.10,30.03,12,1,12,0.01
2012-7-21,75,66,55,62,58,53,98,78,54,30.15,30.07,11,2,14,0.00
2012-7-22,74,65,53,64,58,52,99,80,55,30.20,30.14,15,3,15,0.00
2012-7-23,76,71,62,71,67,60,95,88,77,30.16,29.85,16,5,19,0.00
2012-7-24,88,74,65,76,71,62,97,89,64,29.82,29.53,16,4,22,0.12
2012-7-25,76,69,62,63,59,56,92,72,52,29.84,29.68,15,3,17,0.00
2012-7-26,77,72,64,73,69,62,96,90,71,29.82,29.63,18,4,23,0.00
2012-7-27,82,72,67,74,69,66,96,90,76,29.92,29.64,9,3,11,0.01
2012-7-28,76,70,67,71,68,65,98,94,85,30.01,29.92,9,2,10,0.32
2012-7-29,70,66,63,68,65,62,99,96,91,30.08,29.91,11,3,14,0.00
2012-7-30,76,68,60,68,64,59,99,88,71,30.16,30.08,11,2,13,0.00
2012-7-31,72,66,58,68,64,57,99,94,85,30.17,29.82,14,3,15,1.05
2012-8-1,78,71,67,71,68,66,99,91,73,29.98,29.86,13,3,17,0.01
2012-8-2,82,74,67,73,70,66,99,88,70,29.95,29.86,13,3,14,0.00
2012-8-3,85,77,72,76,74,71,98,90,70,30.12,29.95,15,5,16,0.00
2012-8-4,86,78,74,78,74,70,98,88,63,30.25,30.13,14,4,14,0.00
2012-8-5,81,78,74,78,76,74,98,93,87,30.27,30.00,27,7,30,0.02
2012-8-6,86,76,64,76,69,62,98,82,48,29.99,29.91,14,2,18,0.29
2012-8-7,78,70,60,67,64,59,97,83,62,30.04,29.99,12,2,13,0.00
2012-8-8,80,71,61,72,67,60,98,87,73,30.04,29.98,14,3,14,0.00
2012-8-9,79,72,63,73,69,62,98,90,80,30.00,29.94,14,3,16,0.00
2012-8-10,77,75,73,74,73,71,97,95,89,29.98,29.83,26,6,26,0.76
2012-8-11,80,76,73,76,74,72,97,94,85,29.98,29.86,17,5,18,0.09
2012-8-12,78,75,71,74,73,70,98,94,88,29.99,29.91,16,5,19,0.37
2012-8-13,83,75,68,72,69,64,98,82,56,29.98,29.91,12,3,13,0.00
2012-8-14,84,73,63,70,66,62,98,81,58,29.99,29.93,10,2,11,0.00
2012-8-15,78,72,66,73,70,64,98,91,79,29.97,29.87,12,2,13,0.72
2012-8-16,79,72,66,71,68,65,98,89,71,29.87,29.81,9,2,11,0.06
2012-8-17,83,74,64,71,67,61,98,79,50,29.88,29.82,14,3,18,0.00
2012-8-18,74,68,65,72,66,63,97,93,87,29.91,29.83,10,1,10,0.15
2012-8-19,72,66,61,67,63,59,98,89,76,29.99,29.90,8,2,9,0.00
2012-8-20,74,66,60,66,62,59,98,89,71,29.96,29.88,12,1,12,0.00
2012-8-21,81,70,61,68,64,60,98,83,59,30.11,29.94,9,2,10,0.00
2012-8-22,82,70,59,69,64,56,97,82,42,30.17,30.09,8,1,10,0.00
2012-8-23,80,70,58,70,64,56,98,83,63,30.19,30.12,11,2,13,0.00
2012-8-24,82,72,64,73,67,63,97,86,70,30.24,30.13,7,1,8,0.00
2012-8-25,79,69,61,68,62,58,98,80,49,30.35,30.24,9,1,10,0.00
2012-8-26,78,67,59,65,61,57,98,82,54,30.37,30.27,10,1,11,0.00
2012-8-27,76,67,53,71,64,52,98,90,74,30.27,29.99,14,4,17,0.00
2012-8-28,82,75,67,74,72,65,96,90,71,29.97,29.73,15,3,15,0.19
2012-8-29,71,64,53,65,57,51,94,77,55,30.01,29.86,11,2,11,0.01
2012-8-30,77,66,52,62,57,51,98,74,42,30.09,29.99,14,3,16,0.00
2012-8-31,82,74,68,71,65,60,88,74,54,30.01,29.84,17,5,20,0.00
2012-9-1,75,70,58,68,63,56,92,79,64,30.14,29.86,17,2,17,0.00
2012-9-2,72,65,58,64,59,55,94,82,56,30.16,30.07,11,2,13,0.00
2012-9-3,72,64,55,64,57,53,98,81,58,30.25,30.16,14,2,14,0.00
2012-9-4,74,70,62,72,67,60,96,91,83,30.19,29.94,15,5,17,0.04
2012-9-5,77,73,66,74,72,65,98,96,90,29.92,29.78,21,5,21,1.48
2012-9-6,75,67,60,67,64,60,98,91,73,29.94,29.85,12,2,13,0.00
2012-9-7,80,72,62,73,70,61,98,91,76,29.97,29.90,11,3,12,0.00
2012-9-8,77,74,72,74,72,70,97,93,87,29.96,29.71,20,8,23,0.08
2012-9-9,73,63,56,72,61,55,97,93,86,29.87,29.73,6,1,8,0.05
2012-9-10,67,61,56,59,54,47,98,79,59,30.06,29.86,15,3,17,0.01
2012-9-11,70,57,47,56,49,44,94,76,51,30.31,30.07,9,1,13,0.00
2012-9-12,76,61,47,60,54,46,98,78,44,30.40,30.32,11,1,13,0.00
2012-9-13,76,63,51,63,58,50,98,83,52,30.42,30.32,14,3,17,0.00
2012-9-14,74,65,53,67,62,52,98,89,67,30.32,30.14,14,3,19,0.00
2012-9-15,71,65,55,67,61,51,97,85,62,30.13,29.99,10,2,13,0.01
2012-9-16,71,57,46,56,51,44,97,80,52,30.13,30.01,8,1,11,0.00
2012-9-17,71,58,43,57,50,41,98,79,50,30.15,30.07,12,1,13,0.00
2012-9-18,73,65,50,68,61,48,98,86,77,30.13,29.85,25,7,28,0.00
2012-9-19,72,64,53,69,59,51,97,84,56,30.19,29.79,27,4,30,1.10
2012-9-20,65,59,49,56,51,47,94,77,60,30.27,30.19,12,3,17,0.00
2012-9-21,63,56,47,58,54,45,98,91,74,30.19,30.03,9,2,11,0.00
2012-9-22,70,62,59,64,60,57,98,94,76,30.01,29.91,10,3,11,0.02
2012-9-23,72,64,51,67,58,45,95,80,56,30.12,29.86,13,2,14,0.00
2012-9-24,65,54,44,51,47,42,95,78,48,30.18,30.10,10,1,15,0.00
2012-9-25,69,57,40,57,49,39,98,77,52,30.27,30.19,20,4,24,0.00
2012-9-26,72,67,62,65,62,56,91,82,74,30.22,30.06,21,6,23,0.00
2012-9-27,68,62,48,65,57,46,95,85,61,30.27,30.04,15,2,15,0.00
2012-9-28,64,57,48,63,54,46,96,88,71,30.28,29.97,18,4,23,0.66
2012-9-29,66,59,56,65,58,54,98,96,95,29.96,29.89,11,2,15,0.28
2012-9-30,60,57,54,59,56,52,98,96,90,29.93,29.78,11,2,11,0.56
2012-10-1,67,59,50,57,54,48,98,84,67,30.00,29.80,31,4,31,0.70
2012-10-2,74,61,50,63,57,49,98,88,60,30.11,30.00,9,1,11,0.01
2012-10-3,66,64,60,66,63,59,99,98,94,30.16,30.06,8,1,9,0.03
2012-10-4,63,61,59,63,60,58,99,99,98,30.17,30.06,8,2,9,0.02
2012-10-5,71,63,58,66,61,57,99,94,79,30.08,29.96,10,2,11,0.00
2012-10-6,73,65,55,67,62,51,99,91,80,29.97,29.80,17,5,22,0.02
2012-10-7,59,52,44,52,47,42,96,85,62,30.12,29.97,8,1,8,0.17
2012-10-8,56,50,42,50,47,41,98,89,70,30.37,30.10,8,1,9,0.02
2012-10-9,56,53,51,54,52,49,96,95,89,30.35,30.16,11,2,14,0.12
2012-10-10,63,59,55,62,58,54,98,95,87,30.14,29.78,17,4,19,0.01
2012-10-11,61,51,40,52,42,38,95,72,45,30.21,29.86,11,2,14,0.01
2012-10-12,60,47,39,51,40,25,98,78,49,30.39,30.08,17,2,18,0.00
2012-10-13,52,42,34,39,32,26,94,69,40,30.53,30.40,9,2,11,0.00
2012-10-14,65,58,42,60,53,39,94,84,75,30.39,30.05,24,7,29,0.01
2012-10-15,70,66,63,65,63,60,95,90,83,30.03,29.66,20,8,24,0.00
2012-10-16,64,54,41,62,46,37,96,78,53,29.91,29.58,13,2,15,0.00
2012-10-17,57,46,37,47,42,35,96,85,65,30.07,29.92,8,1,11,0.00
2012-10-18,60,51,38,54,47,37,98,87,72,30.17,30.08,12,2,15,0.00
2012-10-19,68,62,53,67,59,52,98,90,72,30.12,29.81,18,6,22,0.06
2012-10-20,67,64,58,66,62,54,98,95,83,29.82,29.69,15,5,17,0.00
2012-10-21,63,53,44,51,46,42,95,78,52,29.96,29.81,12,1,14,0.00
2012-10-22,67,56,50,48,46,44,83,70,46,30.04,29.92,14,2,18,0.00
2012-10-23,61,54,46,52,47,43,93,79,61,30.14,30.04,13,1,14,0.00
2012-10-24,55,52,42,52,47,40,95,84,73,30.26,30.15,9,1,9,0.00
2012-10-25,62,48,37,51,42,36,98,81,46,30.36,30.27,9,1,11,0.00
2012-10-26,62,50,39,54,42,24,98,78,24,30.32,30.18,11,2,14,0.00
2012-10-27,64,53,41,56,47,40,98,83,53,30.17,30.02,9,1,11,0.00
2012-10-28,57,55,52,54,52,50,96,90,84,30.03,29.73,22,4,24,0.00
2012-10-29,63,58,54,60,56,53,97,96,90,29.73,29.22,24,6,29,0.10
2012-10-30,65,61,57,62,59,55,95,92,83,29.64,29.39,17,4,20,0.01
2012-10-31,60,55,49,58,52,46,97,90,80,29.64,29.53,16,3,20,0.00
2012-11-1,57,51,46,48,45,43,94,80,63,29.64,29.58,15,3,19,0.00
2012-11-2,54,46,39,46,41,37,96,83,65,29.66,29.58,10,1,12,0.00
2012-11-3,56,45,37,42,37,33,93,76,53,29.85,29.65,13,2,13,0.00
2012-11-4,53,44,36,42,37,32,89,76,63,29.97,29.84,9,2,13,0.00
2012-11-5,43,40,35,36,33,24,88,75,61,30.15,29.97,15,4,16,0.00
2012-11-6,42,35,28,33,26,21,91,70,55,30.28,30.16,11,2,13,0.00
2012-11-7,46,43,39,40,36,33,80,74,70,30.18,29.96,20,5,25,0.00
2012-11-17,45,37,30,36,32,28,93,83,70,30.70,30.64,8,1,10,0.00
2012-11-18,49,40,29,38,34,27,99,81,61,30.74,30.65,13,1,16,0.00
2012-11-19,50,46,39,45,42,36,94,87,82,30.65,30.28,11,2,13,0.00
2012-11-20,50,46,44,43,40,39,86,80,70,30.29,30.17,13,2,13,0.00
2012-11-21,53,46,37,46,42,35,96,86,72,30.27,30.18,13,2,15,0.00
2012-11-22,52,46,33,45,41,32,97,84,72,30.31,30.18,9,1,12,0.00
2012-11-23,51,40,30,47,38,29,98,92,82,30.18,29.73,11,2,15,0.00
2012-11-24,48,43,33,48,32,19,97,69,41,29.73,29.58,15,2,21,0.00
2012-11-25,41,37,31,26,22,19,73,55,45,29.94,29.72,18,3,20,0.00
2012-12-16,40,37,36,39,34,29,96,86,74,30.35,30.09,17,4,17,0.00
2012-12-17,48,45,40,47,44,38,97,96,95,30.09,29.79,16,2,16,0.00
2012-12-18,52,49,44,52,48,43,99,97,94,29.79,29.47,13,0,19,0.00
2012-12-19,44,42,39,43,37,35,94,83,71,30.04,29.48,21,5,27,0.00
2012-12-20,43,40,36,37,35,33,94,84,75,30.24,30.04,17,3,17,0.00
2012-12-21,52,46,38,51,42,34,96,89,71,30.09,29.21,35,8,38,0.30
2012-12-22,41,36,30,36,28,19,91,72,53,29.71,29.33,16,4,23,0.01
2012-12-23,40,34,26,28,23,19,91,67,51,29.94,29.71,15,2,20,0.00
2012-12-24,42,31,23,29,24,21,93,78,47,30.13,29.94,8,0,10,0.00
2012-12-25,40,36,31,39,34,29,97,94,88,30.26,30.01,15,3,17,0.01
2012-12-26,39,36,30,36,30,27,94,82,71,30.35,29.94,13,2,20,0.02
2012-12-27,54,45,32,50,43,29,95,93,87,29.95,29.26,35,6,35,0.26
2012-12-28,39,32,26,30,25,22,89,76,60,30.07,29.62,15,3,19,0.00
2012-12-29,39,32,26,38,30,23,96,90,80,30.08,29.30,16,2,17,0.42
2012-12-30,33,28,22,32,25,17,96,89,81,30.01,29.34,20,4,21,0.00
2012-12-31,35,27,18,31,23,14,92,83,78,30.13,29.85,13,2,17,0.00
2013-1-1,37,33,23,30,25,15,82,72,62,29.97,29.80,13,2,13,0.01